createdAt,value
2023-03-03T00:01:01.489Z,1.00
2023-03-03T00:02:05.304Z,1.00
2023-03-03T00:03:08.918Z,1.75
2023-03-03T00:04:12.820Z,1.25
2023-03-03T00:05:16.550Z,1.25
2023-03-03T00:06:20.273Z,1.00
2023-03-03T00:07:23.975Z,2.00
2023-03-03T00:08:27.643Z,1.50
2023-03-03T00:09:31.424Z,1.50
2023-03-03T00:10:35.165Z,0.50
2023-03-03T00:11:38.862Z,0.50
2023-03-03T00:12:42.523Z,1.50
2023-03-03T00:13:46.350Z,0.75
2023-03-03T00:14:49.848Z,1.00
2023-03-03T00:15:53.587Z,1.50
2023-03-03T00:16:57.642Z,1.50
2023-03-03T00:18:01.409Z,1.25
2023-03-03T00:19:05.552Z,1.75
2023-03-03T00:20:09.318Z,2.00
2023-03-03T00:21:13.041Z,2.25
2023-03-03T00:22:16.814Z,2.25
2023-03-03T00:23:20.418Z,1.00
2023-03-03T00:24:24.197Z,1.50
2023-03-03T00:25:28.031Z,2.00
2023-03-03T00:26:31.870Z,2.50
2023-03-03T00:27:35.626Z,2.00
2023-03-03T00:28:39.199Z,1.50
2023-03-03T00:29:42.955Z,2.00
2023-03-03T00:30:46.877Z,1.50
2023-03-03T00:31:50.560Z,1.50
2023-03-03T00:32:54.217Z,1.50
2023-03-03T00:33:58.050Z,2.00
2023-03-03T00:35:01.970Z,2.00
2023-03-03T00:36:05.714Z,3.50
2023-03-03T00:37:09.374Z,2.50
2023-03-03T00:38:17.326Z,2.50
2023-03-03T00:39:20.918Z,2.50
2023-03-03T00:40:24.472Z,2.25
2023-03-03T00:41:27.955Z,3.00
2023-03-03T00:42:31.495Z,2.50
2023-03-03T00:43:34.981Z,2.00
2023-03-03T00:44:38.507Z,1.75
2023-03-03T00:45:42.068Z,1.00
2023-03-03T00:46:45.532Z,1.50
2023-03-03T00:47:49.047Z,2.50
2023-03-03T00:48:52.769Z,3.00
2023-03-03T00:49:56.492Z,3.00
2023-03-03T00:50:59.970Z,2.50
2023-03-03T00:52:03.971Z,3.50
2023-03-03T00:53:08.153Z,4.00
2023-03-03T00:54:11.882Z,3.75
2023-03-03T00:55:15.712Z,3.25
2023-03-03T00:56:19.256Z,3.50
2023-03-03T00:57:22.744Z,3.00
2023-03-03T00:58:27.046Z,3.50
2023-03-03T00:59:30.911Z,3.25
2023-03-03T01:00:34.670Z,4.00
2023-03-03T01:01:38.585Z,4.50
2023-03-03T01:02:42.418Z,4.00
2023-03-03T01:03:46.557Z,3.25
2023-03-03T01:04:50.937Z,3.00
2023-03-03T01:05:55.380Z,2.25
2023-03-03T01:06:59.054Z,3.00
2023-03-03T01:08:03.103Z,2.50
2023-03-03T01:09:07.116Z,2.50
2023-03-03T01:10:11.515Z,3.00
2023-03-03T01:11:15.734Z,2.25
2023-03-03T01:12:20.575Z,2.50
2023-03-03T01:13:24.344Z,2.00
2023-03-03T01:14:28.294Z,2.00
2023-03-03T01:15:32.424Z,2.00
2023-03-03T01:16:36.229Z,2.50
2023-03-03T01:17:41.512Z,2.00
2023-03-03T01:18:45.808Z,2.00
2023-03-03T01:19:49.800Z,2.00
2023-03-03T01:20:53.956Z,3.00
2023-03-03T01:21:57.703Z,3.00
2023-03-03T01:23:01.925Z,1.75
2023-03-03T01:24:05.825Z,3.00
2023-03-03T01:25:11.125Z,2.00
2023-03-03T01:26:15.793Z,2.00
2023-03-03T01:27:19.653Z,1.25
2023-03-03T01:28:23.490Z,2.50
2023-03-03T01:29:27.668Z,3.00
2023-03-03T01:30:31.776Z,3.00
2023-03-03T01:31:35.991Z,2.25
2023-03-03T01:32:40.397Z,2.00
2023-03-03T01:33:44.208Z,2.00
2023-03-03T01:34:47.932Z,3.00
2023-03-03T01:35:51.862Z,2.25
2023-03-03T01:36:55.801Z,1.75
2023-03-03T01:37:59.794Z,2.00
2023-03-03T01:39:03.633Z,2.00
2023-03-03T01:40:07.734Z,2.50
2023-03-03T01:41:11.476Z,2.00
2023-03-03T01:42:15.232Z,1.50
2023-03-03T01:43:19.075Z,1.00
2023-03-03T01:44:22.799Z,2.00
2023-03-03T01:45:26.554Z,2.50
2023-03-03T01:46:30.336Z,2.00
2023-03-03T01:47:33.954Z,2.00
2023-03-03T01:48:37.412Z,1.25
2023-03-03T01:49:41.076Z,1.75
2023-03-03T01:50:44.824Z,2.75
2023-03-03T01:51:48.699Z,2.50
2023-03-03T01:52:52.391Z,3.50
2023-03-03T01:53:56.002Z,4.00
2023-03-03T01:54:59.413Z,3.50
2023-03-03T01:56:03.072Z,4.25
2023-03-03T01:57:06.862Z,3.50
2023-03-03T01:58:10.315Z,4.25
2023-03-03T01:59:13.777Z,4.50
2023-03-03T02:00:17.372Z,4.25
2023-03-03T02:01:20.944Z,5.00
2023-03-03T02:02:24.481Z,3.50
2023-03-03T02:03:28.028Z,4.00
2023-03-03T02:04:31.737Z,4.50
2023-03-03T02:05:35.480Z,4.25
2023-03-03T02:06:39.112Z,5.00
2023-03-03T02:07:42.632Z,3.50
2023-03-03T02:08:46.034Z,2.50
2023-03-03T02:09:49.510Z,2.00
2023-03-03T02:10:53.187Z,2.00
2023-03-03T02:11:56.768Z,2.50
2023-03-03T02:13:00.272Z,3.25
2023-03-03T02:14:03.722Z,2.00
2023-03-03T02:15:07.225Z,2.50
2023-03-03T02:16:10.731Z,3.50
2023-03-03T02:17:14.286Z,3.00
2023-03-03T02:18:17.764Z,3.00
2023-03-03T02:19:21.241Z,3.25
2023-03-03T02:20:24.628Z,3.00
2023-03-03T02:21:28.068Z,1.25
2023-03-03T02:22:31.447Z,2.00
2023-03-03T02:23:34.993Z,1.25
2023-03-03T02:24:38.555Z,1.25
2023-03-03T02:25:42.124Z,1.00
2023-03-03T02:26:45.670Z,1.50
2023-03-03T02:27:49.138Z,1.25
2023-03-03T02:28:52.522Z,0.50
2023-03-03T02:29:56.284Z,1.00
2023-03-03T02:30:59.891Z,1.00
2023-03-03T02:32:03.706Z,0.75
2023-03-03T02:33:07.291Z,0.50
2023-03-03T02:34:10.718Z,0.25
2023-03-03T02:35:14.153Z,0.00
2023-03-03T02:36:17.680Z,0.50
2023-03-03T02:37:21.252Z,1.00
2023-03-03T02:38:24.806Z,1.00
2023-03-03T02:39:28.219Z,0.50
2023-03-03T02:40:31.737Z,0.50
2023-03-03T02:41:35.202Z,1.00
2023-03-03T02:42:38.803Z,0.00
2023-03-03T02:43:42.324Z,0.50
2023-03-03T02:44:45.811Z,0.25
2023-03-03T02:45:49.698Z,1.00
2023-03-03T02:46:53.208Z,1.00
2023-03-03T02:47:56.918Z,0.75
2023-03-03T02:49:00.390Z,0.50
2023-03-03T02:50:03.884Z,1.00
2023-03-03T02:51:07.557Z,0.25
2023-03-03T02:52:10.985Z,0.50
2023-03-03T02:53:14.482Z,1.00
2023-03-03T02:54:18.025Z,0.50
2023-03-03T02:55:21.688Z,1.00
2023-03-03T02:56:25.449Z,0.50
2023-03-03T02:57:29.150Z,0.00
2023-03-03T02:58:32.815Z,0.00
2023-03-03T02:59:36.803Z,0.50
2023-03-03T03:00:40.719Z,1.00
2023-03-03T03:01:44.657Z,0.25
2023-03-03T03:02:48.502Z,0.00
2023-03-03T03:03:52.792Z,0.00
2023-03-03T03:04:56.650Z,0.00
2023-03-03T03:06:00.724Z,0.25
2023-03-03T03:07:04.564Z,0.00
2023-03-03T03:08:09.110Z,0.25
2023-03-03T03:09:13.849Z,0.25
2023-03-03T03:10:17.848Z,0.00
2023-03-03T03:11:22.060Z,0.00
2023-03-03T03:12:25.909Z,0.50
2023-03-03T03:13:31.043Z,1.00
2023-03-03T03:14:36.019Z,1.00
2023-03-03T03:15:39.771Z,0.50
2023-03-03T03:16:43.696Z,0.50
2023-03-03T03:17:47.755Z,0.50
2023-03-03T03:18:51.793Z,0.50
2023-03-03T03:19:55.741Z,0.25
2023-03-03T03:21:00.031Z,0.00
2023-03-03T03:22:04.061Z,0.00
2023-03-03T03:23:07.914Z,0.75
2023-03-03T03:24:11.612Z,0.25
2023-03-03T03:25:15.885Z,0.50
2023-03-03T03:26:20.313Z,0.00
2023-03-03T03:27:23.988Z,0.50
2023-03-03T03:28:27.780Z,1.00
2023-03-03T03:29:32.384Z,1.00
2023-03-03T03:30:36.313Z,0.00
2023-03-03T03:31:40.334Z,0.00
2023-03-03T03:32:48.634Z,1.00
2023-03-03T03:33:53.390Z,1.00
2023-03-03T03:34:57.826Z,0.00
2023-03-03T03:36:01.560Z,1.00
2023-03-03T03:37:06.359Z,1.00
2023-03-03T03:38:10.139Z,0.25
2023-03-03T03:39:13.978Z,0.25
2023-03-03T03:40:17.860Z,0.00
2023-03-03T03:41:22.221Z,0.50
2023-03-03T03:42:25.900Z,1.00
2023-03-03T03:43:29.777Z,1.00
2023-03-03T03:44:33.468Z,1.00
2023-03-03T03:45:37.289Z,1.00
2023-03-03T03:46:40.994Z,0.75
2023-03-03T03:47:44.438Z,1.00
2023-03-03T03:48:48.107Z,0.50
2023-03-03T03:49:51.458Z,1.00
2023-03-03T03:50:54.919Z,1.00
2023-03-03T03:51:58.346Z,1.00
2023-03-03T03:53:01.795Z,1.00
2023-03-03T03:54:05.406Z,0.25
2023-03-03T03:55:08.836Z,0.00
2023-03-03T03:56:12.353Z,0.50
2023-03-03T03:57:15.916Z,1.00
2023-03-03T03:58:19.521Z,1.00
2023-03-03T03:59:22.949Z,1.00
2023-03-03T04:00:27.464Z,1.00
2023-03-03T04:01:30.992Z,0.50
2023-03-03T04:02:34.596Z,0.00
2023-03-03T04:03:38.169Z,0.00
2023-03-03T04:04:41.578Z,1.00
2023-03-03T04:05:45.021Z,1.00
2023-03-03T04:06:48.486Z,0.50
2023-03-03T04:07:51.978Z,0.00
2023-03-03T04:08:55.468Z,0.50
2023-03-03T04:09:58.960Z,0.00
2023-03-03T04:11:02.406Z,0.00
2023-03-03T04:12:05.892Z,0.50
2023-03-03T04:13:09.289Z,1.00
2023-03-03T04:14:12.825Z,0.25
2023-03-03T04:15:16.377Z,0.50
2023-03-03T04:16:19.839Z,1.00
2023-03-03T04:17:23.399Z,0.50
2023-03-03T04:18:26.956Z,0.00
2023-03-03T04:19:30.407Z,0.00
2023-03-03T04:20:34.009Z,0.00
2023-03-03T04:21:37.698Z,0.00
2023-03-03T04:22:41.237Z,0.75
2023-03-03T04:23:44.801Z,0.50
2023-03-03T04:24:48.577Z,0.00
2023-03-03T04:25:52.101Z,0.00
2023-03-03T04:26:55.657Z,0.00
2023-03-03T04:27:59.784Z,0.00
2023-03-03T04:29:03.612Z,0.00
2023-03-03T04:30:07.343Z,0.00
2023-03-03T04:31:11.086Z,0.00
2023-03-03T04:32:14.965Z,0.00
2023-03-03T04:33:18.893Z,0.00
2023-03-03T04:34:22.807Z,0.00
2023-03-03T04:35:26.445Z,0.50
2023-03-03T04:36:30.246Z,0.00
2023-03-03T04:37:34.132Z,0.00
2023-03-03T04:38:37.794Z,0.00
2023-03-03T04:39:41.440Z,0.00
2023-03-03T04:40:45.203Z,0.00
2023-03-03T04:41:49.069Z,0.00
2023-03-03T04:42:52.734Z,0.50
2023-03-03T04:43:56.350Z,0.00
2023-03-03T04:45:00.283Z,0.00
2023-03-03T04:46:03.985Z,0.00
2023-03-03T04:47:07.741Z,0.00
2023-03-03T04:48:11.501Z,0.50
2023-03-03T04:49:15.204Z,1.00
2023-03-03T04:50:18.857Z,0.00
2023-03-03T04:51:22.692Z,0.00
2023-03-03T04:52:26.588Z,0.00
2023-03-03T04:53:30.523Z,0.00
2023-03-03T04:54:34.242Z,0.25
2023-03-03T04:55:37.949Z,0.00
2023-03-03T04:56:41.720Z,0.00
2023-03-03T04:57:45.480Z,0.50
2023-03-03T04:58:49.314Z,0.25
2023-03-03T04:59:53.086Z,0.00
2023-03-03T05:00:56.718Z,0.00
2023-03-03T05:02:00.442Z,0.00
2023-03-03T05:03:04.122Z,0.50
2023-03-03T05:04:07.991Z,1.00
2023-03-03T05:05:11.607Z,0.50
2023-03-03T05:06:15.886Z,1.00
2023-03-03T05:07:19.797Z,1.00
2023-03-03T05:08:23.492Z,1.00
2023-03-03T05:09:27.192Z,1.00
2023-03-03T05:10:30.930Z,0.75
2023-03-03T05:11:34.562Z,1.00
2023-03-03T05:12:38.284Z,1.25
2023-03-03T05:13:41.922Z,1.00
2023-03-03T05:14:45.325Z,1.00
2023-03-03T05:15:49.066Z,1.00
2023-03-03T05:16:52.745Z,1.00
2023-03-03T05:17:56.467Z,0.75
2023-03-03T05:19:00.624Z,1.00
2023-03-03T05:20:04.489Z,0.00
2023-03-03T05:21:08.222Z,0.25
2023-03-03T05:22:11.953Z,0.00
2023-03-03T05:23:15.539Z,0.00
2023-03-03T05:24:19.408Z,0.50
2023-03-03T05:25:23.073Z,0.50
2023-03-03T05:26:26.806Z,0.00
2023-03-03T05:27:30.464Z,0.00
2023-03-03T05:28:34.230Z,0.50
2023-03-03T05:29:38.013Z,0.50
2023-03-03T05:30:41.691Z,0.00
2023-03-03T05:31:45.733Z,0.75
2023-03-03T05:32:49.606Z,0.00
2023-03-03T05:33:53.404Z,1.00
2023-03-03T05:34:57.239Z,1.00
2023-03-03T05:36:01.039Z,1.00
2023-03-03T05:37:04.790Z,1.00
2023-03-03T05:38:08.474Z,1.00
2023-03-03T05:39:12.243Z,0.50
2023-03-03T05:40:15.897Z,0.00
2023-03-03T05:41:19.567Z,0.00
2023-03-03T05:42:23.313Z,0.50
2023-03-03T05:43:27.150Z,0.50
2023-03-03T05:44:30.858Z,1.00
2023-03-03T05:45:34.689Z,0.00
2023-03-03T05:46:38.396Z,0.50
2023-03-03T05:47:42.130Z,0.50
2023-03-03T05:48:45.887Z,0.50
2023-03-03T05:49:49.738Z,0.50
2023-03-03T05:50:53.561Z,1.00
2023-03-03T05:51:57.059Z,0.50
2023-03-03T05:53:00.887Z,1.00
2023-03-03T05:54:04.531Z,1.00
2023-03-03T05:55:08.247Z,0.50
2023-03-03T05:56:12.059Z,0.00
2023-03-03T05:57:15.824Z,0.00
2023-03-03T05:58:19.524Z,0.00
2023-03-03T05:59:23.145Z,0.00
2023-03-03T06:00:26.613Z,0.50
2023-03-03T06:01:30.168Z,0.25
2023-03-03T06:02:33.641Z,1.00
2023-03-03T06:03:37.190Z,0.25
2023-03-03T06:04:40.666Z,0.00
2023-03-03T06:05:44.164Z,0.25
2023-03-03T06:06:49.238Z,0.00
2023-03-03T06:07:52.303Z,0.00
2023-03-03T06:08:57.224Z,0.00
2023-03-03T06:10:00.481Z,0.50
2023-03-03T06:11:03.956Z,0.75
2023-03-03T06:12:07.457Z,0.00
2023-03-03T06:13:11.004Z,1.00
2023-03-03T06:14:14.482Z,0.50
2023-03-03T06:15:18.029Z,1.00
2023-03-03T06:16:21.537Z,0.50
2023-03-03T06:17:25.071Z,1.00
2023-03-03T06:18:30.315Z,1.00
2023-03-03T06:19:33.946Z,0.25
2023-03-03T06:20:37.528Z,0.50
2023-03-03T06:21:40.955Z,0.75
2023-03-03T06:22:44.465Z,0.40
2023-03-03T06:23:48.046Z,0.50
2023-03-03T06:24:51.569Z,1.00
2023-03-03T06:25:55.317Z,0.50
2023-03-03T06:26:58.877Z,1.00
2023-03-03T06:28:02.355Z,1.00
2023-03-03T06:29:05.904Z,0.50
2023-03-03T06:30:09.408Z,0.50
2023-03-03T06:31:13.113Z,0.50
2023-03-03T06:32:19.871Z,0.50
2023-03-03T06:33:23.458Z,1.00
2023-03-03T06:34:27.245Z,1.00
2023-03-03T06:35:31.099Z,0.00
2023-03-03T06:36:34.844Z,1.00
2023-03-03T06:37:41.148Z,1.00
2023-03-03T06:38:44.864Z,0.50
2023-03-03T06:39:48.658Z,0.50
2023-03-03T06:40:52.321Z,0.50
2023-03-03T06:41:56.236Z,0.50
2023-03-03T06:42:59.913Z,1.00
2023-03-03T06:44:03.604Z,1.00
2023-03-03T06:45:07.528Z,1.00
2023-03-03T06:46:11.284Z,1.00
2023-03-03T06:47:15.210Z,0.50
2023-03-03T06:48:18.909Z,0.25
2023-03-03T06:49:22.601Z,0.00
2023-03-03T06:50:26.367Z,0.75
2023-03-03T06:51:30.174Z,1.25
2023-03-03T06:52:34.020Z,1.25
2023-03-03T06:53:37.753Z,0.50
2023-03-03T06:54:41.493Z,0.50
2023-03-03T06:55:45.204Z,1.25
2023-03-03T06:56:49.088Z,1.00
2023-03-03T06:57:52.939Z,0.75
2023-03-03T06:58:56.536Z,1.00
2023-03-03T07:00:00.239Z,1.00
2023-03-03T07:01:04.100Z,1.00
2023-03-03T07:02:07.925Z,1.00
2023-03-03T07:03:11.702Z,1.50
2023-03-03T07:04:15.473Z,1.50
2023-03-03T07:05:19.350Z,1.50
2023-03-03T07:06:23.168Z,1.00
2023-03-03T07:07:27.878Z,1.25
2023-03-03T07:08:34.194Z,1.00
2023-03-03T07:09:43.220Z,1.25
2023-03-03T07:10:46.704Z,1.50
2023-03-03T07:11:50.355Z,1.00
2023-03-03T07:12:53.909Z,1.00
2023-03-03T07:13:57.486Z,0.50
2023-03-03T07:15:00.981Z,1.50
2023-03-03T07:16:04.496Z,1.75
2023-03-03T07:17:07.920Z,1.00
2023-03-03T07:18:11.447Z,1.00
2023-03-03T07:19:14.896Z,1.00
2023-03-03T07:20:18.521Z,1.50
2023-03-03T07:21:22.136Z,1.75
2023-03-03T07:22:25.581Z,2.00
2023-03-03T07:23:29.058Z,1.50
2023-03-03T07:24:32.659Z,2.00
2023-03-03T07:25:36.346Z,2.00
2023-03-03T07:26:40.086Z,2.00
2023-03-03T07:27:43.830Z,2.75
2023-03-03T07:28:47.636Z,3.25
2023-03-03T07:31:12.745Z,2.00
2023-03-03T07:32:16.729Z,1.25
2023-03-03T07:33:20.512Z,1.50
2023-03-03T07:34:24.164Z,0.50
2023-03-03T07:35:28.121Z,2.00
2023-03-03T07:36:31.815Z,1.00
2023-03-03T07:37:35.584Z,1.50
2023-03-03T07:38:39.283Z,2.00
2023-03-03T07:39:42.982Z,1.50
2023-03-03T07:40:46.808Z,0.50
2023-03-03T07:41:50.584Z,0.75
2023-03-03T07:42:54.346Z,0.50
2023-03-03T07:43:58.209Z,1.25
2023-03-03T07:45:01.876Z,2.50
2023-03-03T07:46:05.727Z,3.00
2023-03-03T07:47:09.521Z,2.00
2023-03-03T07:48:13.263Z,1.00
2023-03-03T07:49:16.897Z,1.50
2023-03-03T07:50:20.711Z,2.00
2023-03-03T07:51:24.763Z,2.00
2023-03-03T07:52:28.571Z,2.00
2023-03-03T07:53:34.193Z,1.25
2023-03-03T07:54:38.015Z,2.00
2023-03-03T07:55:41.925Z,2.00
2023-03-03T07:56:46.024Z,2.50
2023-03-03T07:57:49.719Z,1.75
2023-03-03T07:58:53.582Z,2.00
2023-03-03T07:59:57.191Z,2.00
2023-03-03T08:01:01.142Z,2.00
2023-03-03T08:02:04.935Z,2.00
2023-03-03T08:03:08.619Z,2.00
2023-03-03T08:04:12.664Z,1.50
2023-03-03T08:05:16.676Z,2.25
2023-03-03T08:06:20.393Z,2.50
2023-03-03T08:07:24.207Z,3.25
2023-03-03T08:08:27.808Z,2.50
2023-03-03T08:09:31.664Z,3.00
2023-03-03T08:10:35.479Z,3.00
2023-03-03T08:11:39.111Z,3.00
2023-03-03T08:12:42.852Z,2.50
2023-03-03T08:13:46.738Z,3.00
2023-03-03T08:14:50.475Z,4.00
2023-03-03T08:15:54.259Z,3.25
2023-03-03T08:17:00.418Z,3.50
2023-03-03T08:18:02.993Z,3.50
2023-03-03T08:19:06.670Z,3.00
2023-03-03T08:20:10.362Z,3.75
2023-03-03T08:21:15.034Z,3.00
2023-03-03T08:22:18.450Z,4.00
2023-03-03T08:23:22.028Z,3.00
2023-03-03T08:24:25.555Z,4.00
2023-03-03T08:25:29.139Z,5.00
2023-03-03T08:26:32.574Z,3.50
2023-03-03T08:27:36.068Z,4.00
2023-03-03T08:28:39.965Z,3.50
2023-03-03T08:29:43.503Z,4.00
2023-03-03T08:30:47.402Z,3.50
2023-03-03T08:31:51.081Z,3.50
2023-03-03T08:32:54.648Z,2.50
2023-03-03T08:33:58.624Z,3.50
2023-03-03T08:35:02.219Z,5.00
2023-03-03T08:36:05.731Z,6.50
2023-03-03T08:37:09.496Z,7.00
2023-03-03T08:38:12.965Z,5.50
2023-03-03T08:39:17.025Z,4.25
2023-03-03T08:40:20.583Z,4.50
2023-03-03T08:41:24.327Z,4.50
2023-03-03T08:42:27.827Z,4.25
2023-03-03T08:43:31.316Z,4.00
2023-03-03T08:44:35.713Z,4.25
2023-03-03T08:45:39.204Z,3.50
2023-03-03T08:46:43.424Z,4.00
2023-03-03T08:47:47.223Z,4.50
2023-03-03T08:48:50.969Z,3.00
2023-03-03T08:49:54.915Z,2.50
2023-03-03T08:50:58.698Z,3.00
2023-03-03T08:52:02.393Z,3.75
2023-03-03T08:53:06.127Z,3.50
2023-03-03T08:54:09.775Z,4.00
2023-03-03T08:55:13.577Z,5.00
2023-03-03T08:56:16.995Z,3.00
2023-03-03T08:57:20.556Z,3.75
2023-03-03T08:58:33.441Z,6.00
2023-03-03T08:59:28.727Z,6.00
2023-03-03T09:00:32.097Z,6.00
2023-03-03T09:01:35.718Z,5.75
2023-03-03T09:02:39.825Z,6.00
2023-03-03T09:03:43.464Z,6.50
2023-03-03T09:04:50.381Z,6.50
2023-03-03T09:05:54.195Z,5.00
2023-03-03T09:06:57.847Z,4.50
2023-03-03T09:08:01.594Z,5.50
2023-03-03T09:09:05.337Z,5.25
2023-03-03T09:10:09.155Z,5.00
2023-03-03T09:11:12.838Z,4.50
2023-03-03T09:12:16.584Z,3.50
2023-03-03T09:13:20.428Z,3.00
2023-03-03T09:14:23.792Z,3.25
2023-03-03T09:15:30.843Z,2.75
2023-03-03T09:16:34.697Z,3.50
2023-03-03T09:17:38.275Z,3.00
2023-03-03T09:18:41.876Z,3.25
2023-03-03T09:19:45.932Z,3.25
2023-03-03T09:20:49.772Z,3.00
2023-03-03T09:21:53.716Z,4.00
2023-03-03T09:22:57.125Z,3.50
2023-03-03T09:24:00.573Z,2.75
2023-03-03T09:25:04.425Z,3.50
2023-03-03T09:26:08.229Z,4.50
2023-03-03T09:27:11.862Z,4.00
2023-03-03T09:28:15.600Z,3.50
2023-03-03T09:29:19.362Z,3.00
2023-03-03T09:30:22.966Z,3.00
2023-03-03T09:31:26.758Z,3.50
2023-03-03T09:32:30.317Z,3.50
2023-03-03T09:33:33.797Z,3.50
2023-03-03T09:34:37.600Z,4.00
2023-03-03T09:35:41.656Z,3.00
2023-03-03T09:36:45.573Z,3.25
2023-03-03T09:37:49.243Z,3.50
2023-03-03T09:38:52.746Z,2.50
2023-03-03T09:39:56.326Z,3.50
2023-03-03T09:41:00.128Z,3.25
2023-03-03T09:42:05.751Z,3.00
2023-03-03T09:43:09.636Z,3.50
2023-03-03T09:44:13.236Z,3.00
2023-03-03T09:45:17.001Z,2.75
2023-03-03T09:46:20.467Z,3.25
2023-03-03T09:47:24.338Z,4.00
2023-03-03T09:48:27.952Z,4.50
2023-03-03T09:49:31.383Z,4.50
2023-03-03T09:50:34.791Z,4.00
2023-03-03T09:51:38.503Z,3.50
2023-03-03T09:52:42.287Z,3.50
2023-03-03T09:53:46.179Z,4.00
2023-03-03T09:54:51.960Z,4.00
2023-03-03T09:55:58.466Z,3.50
2023-03-03T09:57:02.125Z,3.00
2023-03-03T09:58:10.946Z,3.50
2023-03-03T09:59:11.202Z,4.25
2023-03-03T10:00:14.846Z,4.50
2023-03-03T10:01:18.339Z,3.50
2023-03-03T10:02:21.884Z,2.50
2023-03-03T10:03:25.591Z,3.50
2023-03-03T10:04:29.183Z,4.00
2023-03-03T10:05:35.619Z,4.00
2023-03-03T10:06:39.144Z,3.50
2023-03-03T10:07:42.833Z,3.75
2023-03-03T10:08:46.607Z,3.00
2023-03-03T10:09:50.153Z,3.00
2023-03-03T10:10:53.680Z,4.00
2023-03-03T10:11:57.153Z,3.50
2023-03-03T10:13:00.541Z,3.75
2023-03-03T10:14:04.100Z,3.50
2023-03-03T10:15:07.564Z,3.50
2023-03-03T10:16:11.023Z,3.50
2023-03-03T10:17:14.493Z,3.00
2023-03-03T10:18:17.988Z,3.25
2023-03-03T10:19:21.394Z,4.00
2023-03-03T10:20:25.109Z,4.00
2023-03-03T10:21:28.578Z,3.50
2023-03-03T10:22:32.053Z,2.50
2023-03-03T10:23:37.526Z,3.50
2023-03-03T10:24:41.199Z,3.50
2023-03-03T10:25:46.888Z,2.25
2023-03-03T10:27:05.317Z,3.25
2023-03-03T10:27:55.692Z,3.25
2023-03-03T10:28:59.569Z,3.00
2023-03-03T10:30:03.443Z,3.00
2023-03-03T10:31:12.185Z,2.25
2023-03-03T10:32:12.568Z,2.00
2023-03-03T10:33:16.545Z,3.00
2023-03-03T10:34:20.425Z,2.50
2023-03-03T10:35:23.936Z,3.00
2023-03-03T10:36:29.407Z,3.25
2023-03-03T10:37:32.067Z,3.50
2023-03-03T10:38:35.758Z,3.50
2023-03-03T10:39:39.288Z,4.00
2023-03-03T10:40:42.729Z,3.00
2023-03-03T10:41:48.215Z,2.50
2023-03-03T10:42:56.746Z,2.25
2023-03-03T10:44:00.921Z,3.00
2023-03-03T10:45:04.776Z,3.00
2023-03-03T10:46:08.461Z,3.00
2023-03-03T10:47:12.340Z,3.00
2023-03-03T10:48:19.281Z,3.00
2023-03-03T10:49:22.996Z,3.25
2023-03-03T10:50:26.550Z,3.00
2023-03-03T10:51:30.264Z,3.50
2023-03-03T10:52:35.613Z,2.75
2023-03-03T10:53:39.193Z,2.25
2023-03-03T10:54:42.865Z,3.50
2023-03-03T10:55:46.570Z,4.00
2023-03-03T10:56:53.278Z,3.50
2023-03-03T10:57:55.688Z,3.00
2023-03-03T10:58:59.792Z,3.50
2023-03-03T11:00:03.580Z,3.00
2023-03-03T11:01:07.409Z,3.00
2023-03-03T11:02:11.174Z,3.50
2023-03-03T11:03:15.014Z,4.00
2023-03-03T11:04:20.195Z,3.50
2023-03-03T11:05:24.065Z,3.00
2023-03-03T11:06:32.816Z,4.25
2023-03-03T11:07:36.573Z,4.50
2023-03-03T11:08:40.255Z,3.25
2023-03-03T11:09:43.970Z,2.00
2023-03-03T11:10:47.414Z,4.00
2023-03-03T11:11:50.819Z,4.00
2023-03-03T11:12:54.426Z,3.25
2023-03-03T11:13:58.447Z,3.00
2023-03-03T11:15:02.238Z,3.00
2023-03-03T11:16:06.100Z,3.50
2023-03-03T11:17:09.791Z,4.00
2023-03-03T11:18:13.546Z,3.00
2023-03-03T11:19:17.333Z,3.25
2023-03-03T11:20:20.877Z,3.25
2023-03-03T11:21:24.265Z,3.50
2023-03-03T11:22:27.786Z,2.50
2023-03-03T11:23:31.303Z,3.50
2023-03-03T11:24:34.962Z,4.00
2023-03-03T11:25:38.454Z,3.25
2023-03-03T11:26:42.043Z,3.00
2023-03-03T11:27:45.556Z,3.50
2023-03-03T11:28:48.954Z,3.50
2023-03-03T11:29:52.946Z,4.00
2023-03-03T11:30:56.374Z,3.50
2023-03-03T11:31:59.926Z,3.00
2023-03-03T11:33:03.449Z,3.25
2023-03-03T11:34:06.796Z,3.25
2023-03-03T11:35:10.420Z,3.00
2023-03-03T11:36:13.901Z,4.00
2023-03-03T11:37:17.424Z,3.75
2023-03-03T11:38:20.918Z,3.50
2023-03-03T11:39:24.397Z,4.00
2023-03-03T11:40:27.835Z,3.50
2023-03-03T11:41:31.326Z,3.75
2023-03-03T11:42:34.728Z,3.00
2023-03-03T11:43:38.397Z,4.00
2023-03-03T11:44:41.766Z,3.50
2023-03-03T11:45:45.456Z,2.75
2023-03-03T11:46:48.972Z,3.50
2023-03-03T11:47:52.366Z,2.50
2023-03-03T11:48:55.766Z,3.00
2023-03-03T11:49:59.358Z,2.00
2023-03-03T11:51:02.834Z,3.50
2023-03-03T11:52:06.360Z,3.50
2023-03-03T11:53:09.995Z,3.50
2023-03-03T11:54:13.509Z,4.00
2023-03-03T11:55:16.911Z,2.50
2023-03-03T11:56:20.603Z,3.00
2023-03-03T11:57:23.992Z,4.00
2023-03-03T11:58:28.481Z,3.25
2023-03-03T11:59:37.015Z,3.00
2023-03-03T12:00:40.437Z,2.25
2023-03-03T12:01:43.970Z,2.50
2023-03-03T12:02:47.441Z,2.75
2023-03-03T12:03:50.889Z,2.25
2023-03-03T12:04:54.331Z,2.20
2023-03-03T12:05:57.859Z,3.00
2023-03-03T12:07:04.014Z,3.00
2023-03-03T12:08:06.628Z,2.50
2023-03-03T12:09:10.138Z,2.00
2023-03-03T12:10:13.802Z,2.75
2023-03-03T12:11:17.295Z,2.00
2023-03-03T12:12:20.829Z,1.50
2023-03-03T12:13:24.231Z,2.50
2023-03-03T12:14:28.033Z,2.00
2023-03-03T12:15:31.792Z,2.00
2023-03-03T12:16:35.519Z,3.25
2023-03-03T12:17:39.270Z,2.50
2023-03-03T12:18:45.545Z,2.00
2023-03-03T12:19:49.157Z,1.50
2023-03-03T12:20:52.600Z,1.25
2023-03-03T12:21:58.753Z,2.00
2023-03-03T12:23:06.918Z,3.00
2023-03-03T12:24:08.554Z,2.50
2023-03-03T12:25:12.079Z,3.00
2023-03-03T12:26:15.447Z,1.00
2023-03-03T12:27:19.205Z,2.00
2023-03-03T12:28:23.328Z,2.50
2023-03-03T12:29:26.842Z,2.50
2023-03-03T12:30:30.198Z,2.25
2023-03-03T12:31:33.737Z,2.50
2023-03-03T12:32:37.291Z,2.50
2023-03-03T12:33:40.978Z,2.00
2023-03-03T12:34:44.462Z,2.50
2023-03-03T12:35:49.692Z,1.75
2023-03-03T12:36:52.913Z,2.50
2023-03-03T12:37:56.468Z,3.00
2023-03-03T12:39:00.293Z,2.25
2023-03-03T12:40:04.231Z,2.00
2023-03-03T12:41:07.767Z,2.50
2023-03-03T12:42:11.467Z,3.00
2023-03-03T12:43:15.254Z,2.50
2023-03-03T12:44:19.013Z,2.00
2023-03-03T12:45:22.649Z,2.50
2023-03-03T12:46:29.405Z,2.00
2023-03-03T12:47:31.300Z,1.50
2023-03-03T12:48:35.028Z,1.75
2023-03-03T12:49:44.070Z,1.50
2023-03-03T12:50:45.429Z,2.50
2023-03-03T12:51:52.767Z,2.00
2023-03-03T12:52:56.394Z,2.50
2023-03-03T12:54:00.098Z,3.00
2023-03-03T12:55:03.966Z,2.25
2023-03-03T12:56:07.397Z,2.00
2023-03-03T12:57:11.007Z,2.25
2023-03-03T12:58:14.791Z,3.00
2023-03-03T12:59:18.674Z,2.50
2023-03-03T13:00:22.324Z,2.00
2023-03-03T13:01:25.696Z,2.00
2023-03-03T13:02:29.434Z,2.50
2023-03-03T13:03:34.444Z,3.00
2023-03-03T13:04:38.111Z,3.00
2023-03-03T13:05:42.703Z,2.50
2023-03-03T13:06:46.521Z,1.25
2023-03-03T13:07:49.959Z,1.50
2023-03-03T13:08:53.393Z,2.00
2023-03-03T13:09:56.830Z,2.75
2023-03-03T13:11:00.760Z,2.00
2023-03-03T13:12:04.436Z,3.00
2023-03-03T13:13:08.274Z,2.25
2023-03-03T13:14:11.960Z,2.00
2023-03-03T13:15:16.099Z,2.00
2023-03-03T13:16:22.221Z,2.25
2023-03-03T13:17:25.032Z,2.00
2023-03-03T13:18:28.708Z,2.00
2023-03-03T13:19:32.411Z,2.25
2023-03-03T13:20:41.217Z,2.25
2023-03-03T13:21:44.778Z,2.00
2023-03-03T13:22:48.132Z,2.00
2023-03-03T13:23:51.602Z,2.50
2023-03-03T13:24:55.041Z,2.50
2023-03-03T13:25:58.527Z,2.50
2023-03-03T13:27:02.092Z,3.00
2023-03-03T13:28:05.958Z,3.50
2023-03-03T13:29:09.265Z,3.00
2023-03-03T13:30:17.677Z,3.00
2023-03-03T13:31:21.509Z,3.00
2023-03-03T13:32:25.700Z,2.25
2023-03-03T13:33:29.956Z,2.00
2023-03-03T13:34:33.804Z,3.75
2023-03-03T13:35:37.262Z,3.00
2023-03-03T13:36:43.718Z,2.50
2023-03-03T13:37:47.179Z,3.50
2023-03-03T13:38:50.567Z,3.00
2023-03-03T13:40:04.110Z,3.00
2023-03-03T13:41:07.584Z,3.50
2023-03-03T13:42:10.960Z,3.00
2023-03-03T13:43:14.977Z,2.50
2023-03-03T13:44:18.481Z,2.00
2023-03-03T13:45:22.221Z,2.75
2023-03-03T13:46:25.757Z,2.50
2023-03-03T13:47:29.208Z,3.50
2023-03-03T13:48:33.159Z,2.75
2023-03-03T13:49:36.745Z,2.50
2023-03-03T13:50:40.275Z,3.50
2023-03-03T13:51:43.741Z,2.50
2023-03-03T13:52:47.210Z,3.50
2023-03-03T13:53:56.409Z,3.00
2023-03-03T13:54:59.889Z,2.25
2023-03-03T13:56:03.483Z,2.50
2023-03-03T13:57:07.214Z,3.00
2023-03-03T13:58:10.920Z,2.25
2023-03-03T13:59:14.497Z,2.00
2023-03-03T14:00:18.003Z,3.00
2023-03-03T14:01:21.470Z,2.50
2023-03-03T14:02:25.194Z,2.50
2023-03-03T14:03:28.564Z,2.50
2023-03-03T14:04:32.368Z,2.00
2023-03-03T14:05:35.765Z,2.50
2023-03-03T14:06:39.260Z,2.50
2023-03-03T14:07:42.955Z,2.00
2023-03-03T14:08:46.320Z,2.00
2023-03-03T14:09:51.296Z,2.50
2023-03-03T14:10:56.493Z,2.50
2023-03-03T14:13:19.839Z,1.50